Dothan Regional Airport
KDHN : now visible

Airfield :











YOU CAN JOIN US ON...

 
LOGIN :

Register | Disclaimer

   EN    FR    IT 

 









Legend :    VFR   Marginal VFR   IFR   Intensive IFR   Very Intensive IFR
Visi :
Ceiling :
>= 8 km
>= 3000ft
5 to 8 km
1000 to 3000 ft
1500m to 5 km
500 to 1000 ft
800 to 1500m
200 to 500 ft
< 800m
< 200 ft
Symbols :   Thunderstorms  Fog  Heavy snow  Heavy precipitations  Wind > 20 kt






- Airport Elevation : 401 ft
- IATA code : DHN


KDHN - Dothan Regional

CURRENT METAR :
  • 130453Z AUTO 00000KT 10SM CLR 27/23 A3005 RMK AO2 SLP170 T02670233 403440217

EXPIRED METARs :
  • 130353Z AUTO 00000KT 10SM CLR 27/23 A3004 RMK AO2 LTG DSNT W SLP166 T02720233
  • 130336Z AUTO 31005KT 10SM FEW019 SCT025 27/23 A3005 RMK AO2 LTG DSNT W T02720228
  • 130326Z AUTO 33006KT 10SM SCT019 BKN025 27/23 A3005 RMK AO2 LTG DSNT W AND NW T02720233
  • 130253Z AUTO 26009KT 10SM FEW020 BKN060 28/23 A3004 RMK AO2 LTG DSNT W AND NW SLP165 T02830233 51013

TAF KDHN
Valid from the 13 at 00:00 until the 14 at 00:00 UTC


122320Z 1300/1324 22004KT P6SM SCT050
FM131800 24005KT P6SM BKN250
TEMPO 1318/1321 P6SM TSRA BKN050CB
FM132100 23007KT P6SM BKN250
TEMPO 1321/1324 P6SM TSRA BKN050CB
KZJX FIR / North America



MET'MAP, your aeronautical weather chart ! - Copyright ORBIFLY December 2007 - Disclaimer

ORBIFLY MET'MAP TEAM :

Programming & Development : Alexandra Zaïnal
Concept & original design : Baudouin d'Aumeries
Assistance for programming : Marc-Olivier Méhu
Technical & hardware support : Manuel Goepfert

Contact : metmap@orbifly.com




SOURCES & CREDITS :

   NOAA       Earth
Advisory